createdAt,value
2022-12-15T00:01:30.161Z,60.70
2022-12-15T00:04:21.715Z,60.00
2022-12-15T00:07:13.331Z,60.50
2022-12-15T00:10:05.843Z,60.40
2022-12-15T00:12:56.585Z,60.00
2022-12-15T00:15:48.009Z,60.20
2022-12-15T00:18:39.034Z,60.10
2022-12-15T00:21:30.708Z,60.10
2022-12-15T00:24:21.848Z,60.00
2022-12-15T00:27:16.620Z,60.10
2022-12-15T00:30:07.764Z,59.90
2022-12-15T00:32:58.830Z,60.10
2022-12-15T00:35:50.903Z,60.00
2022-12-15T00:38:42.017Z,60.00
2022-12-15T00:41:19.829Z,60.00
2022-12-15T00:43:55.065Z,60.00
2022-12-15T00:46:46.946Z,60.00
2022-12-15T00:49:37.996Z,59.70
2022-12-15T00:52:30.168Z,59.60
2022-12-15T00:55:21.753Z,59.80
2022-12-15T00:58:12.882Z,59.60
2022-12-15T01:01:05.209Z,59.60
2022-12-15T01:03:57.393Z,59.60
2022-12-15T01:06:48.874Z,59.50
2022-12-15T01:09:39.994Z,59.10
2022-12-15T01:12:31.206Z,59.60
2022-12-15T01:15:23.129Z,59.70
2022-12-15T01:18:16.665Z,59.90
2022-12-15T01:20:57.742Z,60.10
2022-12-15T01:23:33.306Z,60.50
2022-12-15T01:26:11.005Z,60.70
2022-12-15T01:28:44.871Z,60.90
2022-12-15T01:31:18.440Z,61.10
2022-12-15T01:33:56.594Z,61.20
2022-12-15T01:36:30.626Z,60.90
2022-12-15T01:39:04.763Z,61.00
2022-12-15T01:41:40.915Z,61.00
2022-12-15T01:44:23.460Z,60.70
2022-12-15T01:47:03.489Z,60.70
2022-12-15T01:49:40.081Z,60.70
2022-12-15T01:52:14.742Z,60.70
2022-12-15T01:54:57.273Z,61.30
2022-12-15T01:57:35.944Z,60.80
2022-12-15T02:00:22.278Z,60.50
2022-12-15T02:03:23.526Z,60.80
2022-12-15T02:06:05.355Z,60.80
2022-12-15T02:08:39.810Z,60.80
2022-12-15T02:11:44.676Z,60.90
2022-12-15T02:14:29.772Z,61.00
2022-12-15T02:17:21.389Z,60.90
2022-12-15T02:20:41.552Z,60.80
2022-12-15T02:24:00.387Z,60.80
2022-12-15T02:27:25.283Z,60.70
2022-12-15T02:31:11.613Z,60.70
2022-12-15T02:33:53.358Z,60.60
2022-12-15T02:36:36.811Z,60.50
2022-12-15T02:39:13.242Z,60.40
2022-12-15T02:41:49.092Z,60.40
2022-12-15T02:44:28.230Z,60.40
2022-12-15T02:47:28.928Z,60.20
2022-12-15T02:50:31.971Z,60.40
2022-12-15T02:53:25.450Z,60.40
2022-12-15T02:56:10.022Z,60.40
2022-12-15T02:58:57.044Z,60.50
2022-12-15T03:01:38.262Z,60.50
2022-12-15T03:04:14.764Z,60.60
2022-12-15T03:07:01.080Z,60.70
2022-12-15T03:09:35.344Z,60.90
2022-12-15T03:12:10.551Z,60.80
2022-12-15T03:14:44.281Z,61.00
2022-12-15T03:17:17.727Z,61.10
2022-12-15T03:19:52.960Z,61.40
2022-12-15T03:22:27.169Z,60.70
2022-12-15T03:25:02.002Z,61.80
2022-12-15T03:27:37.905Z,61.90
2022-12-15T03:30:13.751Z,62.10
2022-12-15T03:32:48.768Z,62.20
2022-12-15T03:35:24.213Z,61.90
2022-12-15T03:37:58.137Z,62.40
2022-12-15T03:40:31.632Z,63.00
2022-12-15T03:43:05.328Z,62.40
2022-12-15T03:45:40.963Z,62.80
2022-12-15T03:48:14.376Z,62.70
2022-12-15T03:50:50.807Z,62.90
2022-12-15T03:53:24.556Z,63.10
2022-12-15T03:55:58.540Z,62.80
2022-12-15T03:58:32.254Z,63.00
2022-12-15T04:01:13.451Z,62.70
2022-12-15T04:03:47.147Z,63.20
2022-12-15T04:06:22.575Z,63.10
2022-12-15T04:08:56.171Z,63.20
2022-12-15T04:11:29.674Z,63.10
2022-12-15T04:14:03.358Z,63.10
2022-12-15T04:16:36.905Z,63.50
2022-12-15T04:19:27.887Z,63.50
2022-12-15T04:22:04.757Z,63.40
2022-12-15T04:24:55.463Z,63.30
2022-12-15T04:27:47.325Z,63.30
2022-12-15T04:30:38.332Z,63.50
2022-12-15T04:33:31.094Z,63.40
2022-12-15T04:36:24.006Z,63.20
2022-12-15T04:39:18.068Z,63.20
2022-12-15T04:42:10.112Z,63.10
2022-12-15T04:45:02.067Z,63.20
2022-12-15T04:47:53.552Z,63.10
2022-12-15T04:50:44.951Z,62.80
2022-12-15T04:53:38.249Z,63.00
2022-12-15T04:56:32.129Z,63.10
2022-12-15T04:59:23.757Z,63.00
2022-12-15T05:02:15.076Z,62.90
2022-12-15T05:05:06.710Z,63.00
2022-12-15T05:08:01.619Z,62.80
2022-12-15T05:10:53.415Z,62.90
2022-12-15T05:13:45.854Z,62.70
2022-12-15T05:16:37.806Z,62.60
2022-12-15T05:19:28.979Z,62.40
2022-12-15T05:22:20.009Z,62.60
2022-12-15T05:25:13.449Z,62.50
2022-12-15T05:28:04.588Z,62.40
2022-12-15T05:31:00.273Z,62.60
2022-12-15T05:33:34.261Z,62.50
2022-12-15T05:36:09.150Z,62.40
2022-12-15T05:38:42.959Z,62.80
2022-12-15T05:41:16.661Z,61.90
2022-12-15T05:43:50.804Z,62.60
2022-12-15T05:46:26.049Z,62.80
2022-12-15T05:49:00.238Z,62.90
2022-12-15T05:51:34.341Z,62.80
2022-12-15T05:54:09.214Z,63.00
2022-12-15T05:56:43.873Z,63.00
2022-12-15T05:59:17.741Z,63.00
2022-12-15T06:01:52.850Z,63.00
2022-12-15T06:04:26.734Z,63.00
2022-12-15T06:07:01.267Z,62.90
2022-12-15T06:09:34.964Z,62.80
2022-12-15T06:12:09.501Z,62.60
2022-12-15T06:14:43.510Z,62.80
2022-12-15T06:17:18.561Z,62.70
2022-12-15T06:19:52.668Z,62.80
2022-12-15T06:22:29.692Z,62.70
2022-12-15T06:25:03.228Z,62.60
2022-12-15T06:27:38.421Z,62.50
2022-12-15T06:30:13.397Z,62.40
2022-12-15T06:32:50.000Z,62.30
2022-12-15T06:35:23.567Z,62.60
2022-12-15T06:38:01.395Z,61.90
2022-12-15T06:40:38.239Z,62.60
2022-12-15T06:43:12.887Z,61.90
2022-12-15T06:45:52.743Z,61.40
2022-12-15T06:48:30.343Z,61.40
2022-12-15T06:51:06.168Z,62.00
2022-12-15T06:53:42.683Z,61.90
2022-12-15T06:56:22.450Z,62.00
2022-12-15T06:58:59.684Z,62.00
2022-12-15T07:01:34.885Z,61.90
2022-12-15T07:04:11.531Z,61.90
2022-12-15T07:06:46.125Z,61.80
2022-12-15T07:09:19.707Z,61.90
2022-12-15T07:11:54.327Z,61.90
2022-12-15T07:14:28.353Z,61.60
2022-12-15T07:17:02.962Z,61.80
2022-12-15T07:19:41.519Z,61.70
2022-12-15T07:22:15.951Z,62.00
2022-12-15T07:24:49.612Z,61.90
2022-12-15T07:27:24.470Z,62.00
2022-12-15T07:29:58.240Z,62.10
2022-12-15T07:32:31.887Z,62.10
2022-12-15T07:35:08.543Z,62.20
2022-12-15T07:37:43.008Z,62.40
2022-12-15T07:40:16.478Z,62.00
2022-12-15T07:42:50.607Z,62.50
2022-12-15T07:45:24.672Z,62.50
2022-12-15T07:47:58.510Z,62.60
2022-12-15T07:50:33.367Z,62.70
2022-12-15T07:53:07.333Z,63.00
2022-12-15T07:56:05.567Z,62.70
2022-12-15T07:58:35.585Z,62.90
2022-12-15T08:01:14.451Z,63.00
2022-12-15T08:03:49.808Z,63.20
2022-12-15T08:06:25.145Z,63.00
2022-12-15T08:08:58.750Z,62.80
2022-12-15T08:11:35.714Z,62.90
2022-12-15T08:14:16.714Z,62.90
2022-12-15T08:16:51.389Z,62.80
2022-12-15T08:19:24.834Z,62.70
2022-12-15T08:21:59.778Z,62.50
2022-12-15T08:24:34.098Z,62.60
2022-12-15T08:27:08.275Z,62.60
2022-12-15T08:29:51.586Z,62.70
2022-12-15T08:32:26.434Z,62.70
2022-12-15T08:35:00.232Z,62.60
2022-12-15T08:37:36.629Z,62.60
2022-12-15T08:40:11.549Z,62.70
2022-12-15T08:42:45.650Z,62.60
2022-12-15T08:45:22.561Z,63.00
2022-12-15T08:47:57.770Z,63.20
2022-12-15T08:50:31.672Z,63.50
2022-12-15T08:53:30.102Z,63.60
2022-12-15T08:56:06.157Z,63.60
2022-12-15T08:58:40.348Z,64.00
2022-12-15T09:01:22.987Z,64.00
2022-12-15T09:03:59.825Z,64.20
2022-12-15T09:06:37.533Z,64.30
2022-12-15T09:09:14.691Z,64.30
2022-12-15T09:11:49.532Z,64.40
2022-12-15T09:14:29.250Z,64.60
2022-12-15T09:17:03.667Z,64.50
2022-12-15T09:19:37.808Z,64.70
2022-12-15T09:22:11.518Z,64.70
2022-12-15T09:24:46.881Z,64.70
2022-12-15T09:27:20.449Z,64.70
2022-12-15T09:29:53.888Z,64.50
2022-12-15T09:32:27.855Z,64.90
2022-12-15T09:35:02.483Z,64.90
2022-12-15T09:37:37.288Z,65.00
2022-12-15T09:40:15.229Z,64.70
2022-12-15T09:43:25.593Z,65.10
2022-12-15T09:45:58.695Z,65.10
2022-12-15T09:48:42.090Z,65.10
2022-12-15T09:51:20.501Z,65.10
2022-12-15T09:53:56.144Z,65.00
2022-12-15T09:56:49.870Z,65.10
2022-12-15T09:59:36.036Z,65.20
2022-12-15T10:02:35.904Z,65.50
2022-12-15T10:05:50.105Z,65.50
2022-12-15T10:08:25.551Z,65.40
2022-12-15T10:11:04.890Z,65.40
2022-12-15T10:13:53.536Z,65.50
2022-12-15T10:16:40.271Z,65.60
2022-12-15T10:19:23.579Z,65.60
2022-12-15T10:21:59.533Z,65.40
2022-12-15T10:27:51.381Z,65.30
2022-12-15T10:30:27.132Z,65.60
2022-12-15T10:33:10.550Z,64.80
2022-12-15T10:35:46.310Z,65.20
2022-12-15T10:38:34.456Z,65.20
2022-12-15T10:41:12.484Z,65.20
2022-12-15T10:43:50.238Z,64.90
2022-12-15T10:46:29.472Z,65.30
2022-12-15T10:49:24.294Z,65.00
2022-12-15T10:52:01.276Z,65.10
2022-12-15T10:54:46.546Z,64.90
2022-12-15T10:57:29.181Z,64.90
2022-12-15T11:00:29.417Z,64.90
2022-12-15T11:03:24.599Z,64.90
2022-12-15T11:05:59.295Z,64.90
2022-12-15T11:08:36.316Z,64.70
2022-12-15T11:11:50.575Z,64.50
2022-12-15T11:14:30.719Z,64.80
2022-12-15T11:17:09.021Z,65.20
2022-12-15T11:20:00.055Z,64.30
2022-12-15T11:22:47.862Z,64.40
2022-12-15T11:25:33.526Z,64.30
2022-12-15T11:28:22.948Z,64.30
2022-12-15T11:31:05.231Z,63.90
2022-12-15T11:33:38.889Z,64.20
2022-12-15T11:36:43.613Z,63.80
2022-12-15T11:39:30.485Z,64.00
2022-12-15T11:42:21.098Z,63.50
2022-12-15T11:45:06.384Z,63.60
2022-12-15T11:47:49.167Z,63.10
2022-12-15T11:50:32.268Z,62.70
2022-12-15T11:53:27.786Z,62.70
2022-12-15T11:56:16.580Z,63.10
2022-12-15T11:59:28.067Z,63.10
2022-12-15T12:02:31.867Z,62.20
2022-12-15T12:05:37.823Z,62.10
2022-12-15T12:08:42.669Z,62.00
2022-12-15T12:11:22.283Z,61.80
2022-12-15T12:14:20.418Z,61.60
2022-12-15T12:17:05.723Z,61.40
2022-12-15T12:22:52.159Z,61.30
2022-12-15T12:25:28.447Z,60.70
2022-12-15T12:28:15.859Z,61.50
2022-12-15T12:30:51.860Z,61.00
2022-12-15T12:33:38.428Z,60.70
2022-12-15T12:36:14.191Z,60.90
2022-12-15T12:38:52.898Z,60.70
2022-12-15T12:41:41.059Z,60.70
2022-12-15T12:44:29.223Z,60.50
2022-12-15T12:47:17.883Z,60.00
2022-12-15T12:49:58.633Z,60.10
2022-12-15T12:52:38.097Z,60.20
2022-12-15T12:55:29.084Z,60.20
2022-12-15T12:58:26.933Z,60.20
2022-12-15T13:01:21.907Z,60.30
2022-12-15T13:04:12.016Z,60.20
2022-12-15T13:07:16.227Z,60.40
2022-12-15T13:10:18.011Z,60.50
2022-12-15T13:12:54.295Z,60.40
2022-12-15T13:15:41.251Z,60.50
2022-12-15T13:18:20.627Z,60.40
2022-12-15T13:20:57.158Z,60.60
2022-12-15T13:23:42.729Z,60.80
2022-12-15T13:26:21.336Z,60.90
2022-12-15T13:28:58.815Z,61.20
2022-12-15T13:31:49.696Z,61.10
2022-12-15T13:34:29.475Z,61.50
2022-12-15T13:37:04.244Z,61.50
2022-12-15T13:39:57.628Z,61.50
2022-12-15T13:45:43.132Z,61.50
2022-12-15T13:48:38.164Z,61.50
2022-12-15T13:51:33.046Z,61.30
2022-12-15T13:54:19.125Z,61.10
2022-12-15T13:57:05.569Z,60.70
2022-12-15T13:59:50.682Z,60.70
2022-12-15T14:02:30.313Z,60.60
2022-12-15T14:05:17.578Z,60.20
2022-12-15T14:08:00.695Z,60.30
2022-12-15T14:10:44.786Z,59.90
2022-12-15T14:13:27.033Z,60.20
2022-12-15T14:16:07.098Z,60.00
2022-12-15T14:18:42.808Z,60.00
2022-12-15T14:21:30.397Z,59.80
2022-12-15T14:24:40.751Z,59.80
2022-12-15T14:27:25.597Z,59.80
2022-12-15T14:30:22.413Z,59.80
2022-12-15T14:33:03.093Z,59.70
2022-12-15T14:35:43.971Z,59.60
2022-12-15T14:38:24.736Z,59.50
2022-12-15T14:41:04.921Z,59.70
2022-12-15T14:43:41.294Z,59.60
2022-12-15T14:46:20.905Z,59.60
2022-12-15T14:49:00.809Z,59.40
2022-12-15T14:51:47.761Z,59.00
2022-12-15T14:54:37.244Z,59.40
2022-12-15T14:57:23.442Z,59.30
2022-12-15T14:59:57.962Z,59.50
2022-12-15T15:02:32.191Z,59.40
2022-12-15T15:03:07.048Z,61.10
2022-12-15T15:03:15.625Z,61.40
2022-12-15T15:05:25.457Z,59.00
2022-12-15T15:07:59.138Z,59.50
2022-12-15T15:10:33.146Z,59.20
2022-12-15T15:13:22.158Z,59.40
2022-12-15T15:15:59.084Z,59.40
2022-12-15T15:18:33.362Z,59.50
2022-12-15T15:21:08.791Z,59.20
2022-12-15T15:23:43.061Z,59.30
2022-12-15T15:26:18.609Z,59.30
2022-12-15T15:28:54.157Z,59.30
2022-12-15T15:31:41.371Z,59.20
2022-12-15T15:34:18.460Z,59.30
2022-12-15T15:36:52.057Z,59.30
2022-12-15T15:39:25.567Z,59.30
2022-12-15T15:42:06.437Z,58.90
2022-12-15T15:44:41.449Z,59.40
2022-12-15T15:47:25.010Z,59.30
2022-12-15T15:50:01.494Z,59.40
2022-12-15T15:52:35.684Z,59.40
2022-12-15T15:55:16.281Z,59.30
2022-12-15T15:57:49.957Z,59.40
2022-12-15T16:00:27.749Z,59.20
2022-12-15T16:03:02.696Z,59.20
2022-12-15T16:05:36.920Z,59.20
2022-12-15T16:08:18.361Z,59.10
2022-12-15T16:10:53.672Z,59.20
2022-12-15T16:13:28.154Z,59.10
2022-12-15T16:16:03.393Z,59.10
2022-12-15T16:18:37.192Z,59.00
2022-12-15T16:21:15.110Z,59.00
2022-12-15T16:23:50.822Z,59.10
2022-12-15T16:26:31.051Z,59.10
2022-12-15T16:29:07.178Z,59.10
2022-12-15T16:31:45.624Z,59.00
2022-12-15T16:34:21.847Z,58.90
2022-12-15T16:36:55.766Z,58.80
2022-12-15T16:39:32.900Z,58.90
2022-12-15T16:42:13.366Z,58.80
2022-12-15T16:44:47.088Z,58.90
2022-12-15T16:47:22.528Z,58.80
2022-12-15T16:49:56.158Z,58.80
2022-12-15T16:52:29.942Z,58.60
2022-12-15T16:55:04.133Z,58.80
2022-12-15T16:57:38.142Z,58.70
2022-12-15T17:00:23.153Z,58.80
2022-12-15T17:02:59.424Z,58.80
2022-12-15T17:05:36.211Z,58.80
2022-12-15T17:08:20.079Z,58.90
2022-12-15T17:10:54.606Z,58.80
2022-12-15T17:13:39.036Z,58.80
2022-12-15T17:16:15.010Z,58.80
2022-12-15T17:18:51.472Z,58.70
2022-12-15T17:21:31.590Z,58.80
2022-12-15T17:24:14.289Z,58.70
2022-12-15T17:26:48.690Z,58.80
2022-12-15T17:29:25.913Z,58.80
2022-12-15T17:31:59.793Z,58.80
2022-12-15T17:34:35.977Z,58.70
2022-12-15T17:37:15.564Z,58.70
2022-12-15T17:39:51.597Z,58.70
2022-12-15T17:42:25.991Z,58.70
2022-12-15T17:44:59.658Z,58.60
2022-12-15T17:47:33.858Z,58.60
2022-12-15T17:50:11.109Z,58.60
2022-12-15T17:52:48.019Z,58.70
2022-12-15T17:55:34.577Z,58.70
2022-12-15T17:58:20.577Z,58.60
2022-12-15T18:00:57.525Z,58.60
2022-12-15T18:03:32.265Z,58.60
2022-12-15T18:06:17.385Z,58.50
2022-12-15T18:08:51.766Z,58.50
2022-12-15T18:11:27.455Z,58.60
2022-12-15T18:14:01.632Z,58.60
2022-12-15T18:16:35.750Z,58.70
2022-12-15T18:19:09.595Z,58.70
2022-12-15T18:21:44.816Z,58.90
2022-12-15T18:24:21.679Z,58.90
2022-12-15T18:26:56.074Z,59.10
2022-12-15T18:29:29.803Z,59.10
2022-12-15T18:32:08.003Z,59.10
2022-12-15T18:34:42.422Z,59.70
2022-12-15T18:37:21.243Z,59.10
2022-12-15T18:40:02.543Z,59.10
2022-12-15T18:42:38.567Z,59.00
2022-12-15T18:45:22.972Z,59.00
2022-12-15T18:47:57.284Z,59.00
2022-12-15T18:50:31.289Z,59.00
2022-12-15T18:53:07.252Z,58.90
2022-12-15T18:55:41.371Z,59.00
2022-12-15T18:58:25.091Z,58.90
2022-12-15T19:01:01.181Z,59.00
2022-12-15T19:03:36.804Z,59.10
2022-12-15T19:06:34.806Z,59.00
2022-12-15T19:09:19.138Z,59.00
2022-12-15T19:12:13.320Z,59.00
2022-12-15T19:14:50.080Z,58.90
2022-12-15T19:17:42.760Z,58.90
2022-12-15T19:20:39.472Z,58.90
2022-12-15T19:23:15.432Z,58.90
2022-12-15T19:25:52.418Z,58.90
2022-12-15T19:28:26.422Z,59.00
2022-12-15T19:31:02.588Z,58.90
2022-12-15T19:33:36.917Z,58.80
2022-12-15T19:36:18.600Z,58.80
2022-12-15T19:38:56.289Z,58.90
2022-12-15T19:41:35.650Z,59.00
2022-12-15T19:44:17.932Z,58.90
2022-12-15T19:46:52.440Z,59.00
2022-12-15T19:49:27.787Z,58.90
2022-12-15T19:52:01.923Z,59.10
2022-12-15T19:54:35.951Z,58.80
2022-12-15T19:57:17.842Z,58.90
2022-12-15T19:59:53.054Z,58.90
2022-12-15T20:02:29.227Z,58.90
2022-12-15T20:05:03.159Z,58.90
2022-12-15T20:07:36.829Z,58.80
2022-12-15T20:10:24.402Z,58.80
2022-12-15T20:13:03.415Z,59.00
2022-12-15T20:15:37.845Z,59.00
2022-12-15T20:18:11.792Z,59.00
2022-12-15T20:20:49.180Z,59.00
2022-12-15T20:23:27.727Z,59.10
2022-12-15T20:26:02.335Z,59.20
2022-12-15T20:28:38.406Z,59.20
2022-12-15T20:31:17.251Z,59.20
2022-12-15T20:33:51.755Z,59.30
2022-12-15T20:36:29.239Z,59.30
2022-12-15T20:39:03.159Z,59.40
2022-12-15T20:41:37.266Z,59.40
2022-12-15T20:44:14.507Z,59.60
2022-12-15T20:46:48.773Z,59.50
2022-12-15T20:49:24.983Z,59.50
2022-12-15T20:51:59.123Z,59.50
2022-12-15T20:54:33.518Z,59.60
2022-12-15T20:57:07.412Z,59.50
2022-12-15T20:59:42.914Z,59.50
2022-12-15T21:02:22.091Z,59.60
2022-12-15T21:04:55.861Z,59.60
2022-12-15T21:07:29.863Z,59.40
2022-12-15T21:10:08.601Z,59.50
2022-12-15T21:12:44.026Z,59.50
2022-12-15T21:15:22.248Z,59.30
2022-12-15T21:18:20.018Z,59.40
2022-12-15T21:20:55.252Z,59.40
2022-12-15T21:23:33.043Z,59.50
2022-12-15T21:26:08.170Z,59.50
2022-12-15T21:28:42.323Z,59.40
2022-12-15T21:31:19.236Z,59.40
2022-12-15T21:33:53.294Z,59.50
2022-12-15T21:36:30.759Z,59.70
2022-12-15T21:39:12.211Z,59.80
2022-12-15T21:41:45.949Z,60.00
2022-12-15T21:44:19.459Z,60.20
2022-12-15T21:46:54.755Z,60.30
2022-12-15T21:49:27.780Z,60.20
2022-12-15T21:52:03.245Z,60.50
2022-12-15T21:54:38.363Z,61.30
2022-12-15T21:57:13.699Z,60.50
2022-12-15T21:59:47.301Z,60.60
2022-12-15T22:02:30.667Z,60.60
2022-12-15T22:05:04.946Z,60.50
2022-12-15T22:07:39.250Z,60.50
2022-12-15T22:10:14.227Z,60.40
2022-12-15T22:12:59.249Z,60.30
2022-12-15T22:15:34.121Z,60.20
2022-12-15T22:18:19.587Z,60.20
2022-12-15T22:20:56.570Z,60.10
2022-12-15T22:23:30.471Z,59.90
2022-12-15T22:26:05.209Z,59.90
2022-12-15T22:28:39.738Z,60.00
2022-12-15T22:31:13.560Z,59.90
2022-12-15T22:33:48.665Z,60.00
2022-12-15T22:36:23.316Z,59.90
2022-12-15T22:39:02.904Z,60.00
2022-12-15T22:41:44.001Z,60.00
2022-12-15T22:44:22.515Z,60.00
2022-12-15T22:46:59.594Z,60.10
2022-12-15T22:49:40.141Z,60.00
2022-12-15T22:52:19.527Z,60.00
2022-12-15T22:54:54.983Z,59.90
2022-12-15T22:57:31.321Z,59.80
2022-12-15T23:00:11.480Z,59.90
2022-12-15T23:02:48.805Z,59.90
2022-12-15T23:05:24.284Z,59.80
2022-12-15T23:07:58.310Z,59.70
2022-12-15T23:10:49.354Z,59.70
2022-12-15T23:13:24.046Z,59.60
2022-12-15T23:16:15.150Z,59.60
2022-12-15T23:18:51.774Z,59.60
2022-12-15T23:21:27.308Z,59.60
2022-12-15T23:24:02.724Z,59.50
2022-12-15T23:26:36.619Z,59.60
2022-12-15T23:29:10.838Z,59.60
2022-12-15T23:31:44.886Z,59.50
2022-12-15T23:34:18.852Z,59.60
2022-12-15T23:36:54.119Z,59.50
2022-12-15T23:39:27.797Z,59.30
2022-12-15T23:42:02.433Z,59.40
2022-12-15T23:44:37.512Z,59.50
2022-12-15T23:47:11.376Z,59.50
2022-12-15T23:49:45.685Z,59.40
2022-12-15T23:52:21.443Z,59.50
2022-12-15T23:54:55.139Z,59.40
2022-12-15T23:57:29.690Z,59.30
